sensor_id;sensor_type;location;lat;lon;timestamp;P1;durP1;ratioP1;P2;durP2;ratioP2
13951;SDS011;39535;52.192;9.886;2022-12-07T00:01:27;23.67;;;16.97;;
13951;SDS011;39535;52.192;9.886;2022-12-07T00:03:57;22.37;;;16.83;;
13951;SDS011;39535;52.192;9.886;2022-12-07T00:06:29;21.87;;;17.30;;
13951;SDS011;39535;52.192;9.886;2022-12-07T00:08:56;19.63;;;17.63;;
13951;SDS011;39535;52.192;9.886;2022-12-07T00:11:23;21.37;;;17.83;;
13951;SDS011;39535;52.192;9.886;2022-12-07T00:13:52;28.03;;;18.80;;
13951;SDS011;39535;52.192;9.886;2022-12-07T00:16:20;28.47;;;19.33;;
13951;SDS011;39535;52.192;9.886;2022-12-07T00:18:49;22.63;;;18.43;;
13951;SDS011;39535;52.192;9.886;2022-12-07T00:21:17;23.67;;;18.17;;
13951;SDS011;39535;52.192;9.886;2022-12-07T00:23:45;26.53;;;19.70;;
13951;SDS011;39535;52.192;9.886;2022-12-07T00:26:13;24.07;;;19.63;;
13951;SDS011;39535;52.192;9.886;2022-12-07T00:28:44;25.60;;;19.40;;
13951;SDS011;39535;52.192;9.886;2022-12-07T00:31:13;21.80;;;17.97;;
13951;SDS011;39535;52.192;9.886;2022-12-07T00:33:40;23.63;;;19.37;;
13951;SDS011;39535;52.192;9.886;2022-12-07T00:36:08;21.70;;;18.57;;
13951;SDS011;39535;52.192;9.886;2022-12-07T00:41:04;18.20;;;16.13;;
13951;SDS011;39535;52.192;9.886;2022-12-07T00:43:32;19.67;;;17.57;;
13951;SDS011;39535;52.192;9.886;2022-12-07T00:45:59;19.10;;;16.97;;
13951;SDS011;39535;52.192;9.886;2022-12-07T00:48:27;19.07;;;16.93;;
13951;SDS011;39535;52.192;9.886;2022-12-07T00:50:53;19.03;;;17.03;;
13951;SDS011;39535;52.192;9.886;2022-12-07T00:53:19;18.37;;;16.43;;
13951;SDS011;39535;52.192;9.886;2022-12-07T00:55:46;18.43;;;16.63;;
13951;SDS011;39535;52.192;9.886;2022-12-07T00:58:13;17.90;;;16.00;;
13951;SDS011;39535;52.192;9.886;2022-12-07T01:00:40;15.87;;;14.47;;
13951;SDS011;39535;52.192;9.886;2022-12-07T01:03:09;16.17;;;14.50;;
13951;SDS011;39535;52.192;9.886;2022-12-07T01:05:38;16.53;;;15.10;;
13951;SDS011;39535;52.192;9.886;2022-12-07T01:08:05;16.43;;;14.83;;
13951;SDS011;39535;52.192;9.886;2022-12-07T01:10:32;17.40;;;15.70;;
13951;SDS011;39535;52.192;9.886;2022-12-07T01:12:59;18.40;;;14.90;;
13951;SDS011;39535;52.192;9.886;2022-12-07T01:15:25;16.87;;;15.27;;
13951;SDS011;39535;52.192;9.886;2022-12-07T01:17:52;16.30;;;14.70;;
13951;SDS011;39535;52.192;9.886;2022-12-07T01:20:19;16.23;;;14.53;;
13951;SDS011;39535;52.192;9.886;2022-12-07T01:22:47;16.93;;;14.73;;
13951;SDS011;39535;52.192;9.886;2022-12-07T01:25:14;14.73;;;13.50;;
13951;SDS011;39535;52.192;9.886;2022-12-07T01:27:41;14.87;;;13.47;;
13951;SDS011;39535;52.192;9.886;2022-12-07T01:30:08;15.07;;;13.57;;
13951;SDS011;39535;52.192;9.886;2022-12-07T01:32:36;16.30;;;14.63;;
13951;SDS011;39535;52.192;9.886;2022-12-07T01:35:03;16.07;;;14.60;;
13951;SDS011;39535;52.192;9.886;2022-12-07T01:37:33;16.43;;;14.87;;
13951;SDS011;39535;52.192;9.886;2022-12-07T01:40:02;16.67;;;15.07;;
13951;SDS011;39535;52.192;9.886;2022-12-07T01:42:29;15.23;;;13.73;;
13951;SDS011;39535;52.192;9.886;2022-12-07T01:48:02;14.57;;;13.17;;
13951;SDS011;39535;52.192;9.886;2022-12-07T01:50:30;15.90;;;14.50;;
13951;SDS011;39535;52.192;9.886;2022-12-07T01:52:57;16.63;;;14.97;;
13951;SDS011;39535;52.192;9.886;2022-12-07T01:55:27;16.47;;;14.77;;
13951;SDS011;39535;52.192;9.886;2022-12-07T01:57:55;15.60;;;14.07;;
13951;SDS011;39535;52.192;9.886;2022-12-07T02:00:22;15.80;;;14.40;;
13951;SDS011;39535;52.192;9.886;2022-12-07T02:02:51;15.93;;;14.53;;
13951;SDS011;39535;52.192;9.886;2022-12-07T02:05:21;17.13;;;15.43;;
13951;SDS011;39535;52.192;9.886;2022-12-07T02:07:50;17.97;;;16.27;;
13951;SDS011;39535;52.192;9.886;2022-12-07T02:10:21;17.80;;;16.20;;
13951;SDS011;39535;52.192;9.886;2022-12-07T02:12:51;19.63;;;17.70;;
13951;SDS011;39535;52.192;9.886;2022-12-07T02:15:20;18.73;;;16.90;;
13951;SDS011;39535;52.192;9.886;2022-12-07T02:17:52;19.83;;;17.93;;
13951;SDS011;39535;52.192;9.886;2022-12-07T02:20:28;20.83;;;18.73;;
13951;SDS011;39535;52.192;9.886;2022-12-07T02:23:15;20.77;;;18.73;;
13951;SDS011;39535;52.192;9.886;2022-12-07T02:29:11;23.30;;;19.93;;
13951;SDS011;39535;52.192;9.886;2022-12-07T02:31:43;26.77;;;21.40;;
13951;SDS011;39535;52.192;9.886;2022-12-07T02:34:14;30.37;;;22.23;;
13951;SDS011;39535;52.192;9.886;2022-12-07T02:36:50;26.87;;;21.63;;
13951;SDS011;39535;52.192;9.886;2022-12-07T02:39:22;29.17;;;21.63;;
13951;SDS011;39535;52.192;9.886;2022-12-07T02:41:55;25.27;;;21.00;;
13951;SDS011;39535;52.192;9.886;2022-12-07T02:44:29;27.43;;;20.33;;
13951;SDS011;39535;52.192;9.886;2022-12-07T02:46:58;33.70;;;22.10;;
13951;SDS011;39535;52.192;9.886;2022-12-07T02:49:28;24.43;;;21.63;;
13951;SDS011;39535;52.192;9.886;2022-12-07T02:51:56;26.60;;;22.23;;
13951;SDS011;39535;52.192;9.886;2022-12-07T02:54:22;27.77;;;21.50;;
13951;SDS011;39535;52.192;9.886;2022-12-07T02:56:50;28.30;;;22.87;;
13951;SDS011;39535;52.192;9.886;2022-12-07T02:59:25;28.70;;;21.57;;
13951;SDS011;39535;52.192;9.886;2022-12-07T03:02:06;26.77;;;20.53;;
13951;SDS011;39535;52.192;9.886;2022-12-07T03:04:43;25.43;;;21.53;;
13951;SDS011;39535;52.192;9.886;2022-12-07T03:07:18;25.03;;;20.60;;
13951;SDS011;39535;52.192;9.886;2022-12-07T03:09:51;26.47;;;19.97;;
13951;SDS011;39535;52.192;9.886;2022-12-07T03:12:27;26.07;;;19.93;;
13951;SDS011;39535;52.192;9.886;2022-12-07T03:15:01;20.80;;;18.67;;
13951;SDS011;39535;52.192;9.886;2022-12-07T03:17:32;23.30;;;19.07;;
13951;SDS011;39535;52.192;9.886;2022-12-07T03:20:04;19.90;;;17.77;;
13951;SDS011;39535;52.192;9.886;2022-12-07T03:22:34;24.00;;;18.17;;
13951;SDS011;39535;52.192;9.886;2022-12-07T03:25:05;19.50;;;17.50;;
13951;SDS011;39535;52.192;9.886;2022-12-07T03:27:35;18.07;;;16.47;;
13951;SDS011;39535;52.192;9.886;2022-12-07T03:30:08;16.70;;;15.13;;
13951;SDS011;39535;52.192;9.886;2022-12-07T03:32:39;18.40;;;16.50;;
13951;SDS011;39535;52.192;9.886;2022-12-07T03:35:11;16.37;;;14.87;;
13951;SDS011;39535;52.192;9.886;2022-12-07T03:37:43;16.13;;;14.63;;
13951;SDS011;39535;52.192;9.886;2022-12-07T03:40:14;17.70;;;15.90;;
13951;SDS011;39535;52.192;9.886;2022-12-07T03:42:46;16.83;;;15.23;;
13951;SDS011;39535;52.192;9.886;2022-12-07T03:45:14;15.53;;;14.03;;
13951;SDS011;39535;52.192;9.886;2022-12-07T03:47:43;17.30;;;14.73;;
13951;SDS011;39535;52.192;9.886;2022-12-07T03:50:14;17.07;;;15.23;;
13951;SDS011;39535;52.192;9.886;2022-12-07T03:52:50;16.53;;;14.83;;
13951;SDS011;39535;52.192;9.886;2022-12-07T03:55:22;23.50;;;14.57;;
13951;SDS011;39535;52.192;9.886;2022-12-07T03:57:55;17.47;;;14.87;;
13951;SDS011;39535;52.192;9.886;2022-12-07T04:00:25;15.77;;;14.07;;
13951;SDS011;39535;52.192;9.886;2022-12-07T04:02:52;15.63;;;14.10;;
13951;SDS011;39535;52.192;9.886;2022-12-07T04:05:19;18.27;;;14.20;;
13951;SDS011;39535;52.192;9.886;2022-12-07T04:07:46;17.13;;;15.27;;
13951;SDS011;39535;52.192;9.886;2022-12-07T04:10:12;18.43;;;15.03;;
13951;SDS011;39535;52.192;9.886;2022-12-07T04:12:39;16.00;;;14.37;;
13951;SDS011;39535;52.192;9.886;2022-12-07T04:15:06;17.30;;;14.20;;
13951;SDS011;39535;52.192;9.886;2022-12-07T04:17:35;18.20;;;14.33;;
13951;SDS011;39535;52.192;9.886;2022-12-07T04:20:02;16.57;;;14.90;;
13951;SDS011;39535;52.192;9.886;2022-12-07T04:22:30;19.03;;;13.57;;
13951;SDS011;39535;52.192;9.886;2022-12-07T04:24:56;15.90;;;14.30;;
13951;SDS011;39535;52.192;9.886;2022-12-07T04:27:22;16.33;;;14.63;;
13951;SDS011;39535;52.192;9.886;2022-12-07T04:29:49;16.20;;;14.50;;
13951;SDS011;39535;52.192;9.886;2022-12-07T04:32:15;16.57;;;14.97;;
13951;SDS011;39535;52.192;9.886;2022-12-07T04:34:43;15.67;;;14.03;;
13951;SDS011;39535;52.192;9.886;2022-12-07T04:37:09;27.40;;;14.23;;
13951;SDS011;39535;52.192;9.886;2022-12-07T04:39:36;17.87;;;14.13;;
13951;SDS011;39535;52.192;9.886;2022-12-07T04:42:03;15.97;;;14.53;;
13951;SDS011;39535;52.192;9.886;2022-12-07T04:44:30;15.00;;;13.53;;
13951;SDS011;39535;52.192;9.886;2022-12-07T04:46:56;21.17;;;15.17;;
13951;SDS011;39535;52.192;9.886;2022-12-07T04:49:23;17.10;;;13.63;;
13951;SDS011;39535;52.192;9.886;2022-12-07T04:51:52;16.93;;;13.87;;
13951;SDS011;39535;52.192;9.886;2022-12-07T04:54:18;15.23;;;13.63;;
13951;SDS011;39535;52.192;9.886;2022-12-07T04:56:45;23.37;;;14.47;;
13951;SDS011;39535;52.192;9.886;2022-12-07T04:59:12;15.30;;;13.93;;
13951;SDS011;39535;52.192;9.886;2022-12-07T05:01:39;16.17;;;13.63;;
13951;SDS011;39535;52.192;9.886;2022-12-07T05:04:06;15.37;;;13.67;;
13951;SDS011;39535;52.192;9.886;2022-12-07T05:06:33;24.63;;;12.13;;
13951;SDS011;39535;52.192;9.886;2022-12-07T05:09:01;16.83;;;12.30;;
13951;SDS011;39535;52.192;9.886;2022-12-07T05:11:28;15.83;;;12.07;;
13951;SDS011;39535;52.192;9.886;2022-12-07T05:14:07;15.93;;;11.30;;
13951;SDS011;39535;52.192;9.886;2022-12-07T05:16:36;13.37;;;10.43;;
13951;SDS011;39535;52.192;9.886;2022-12-07T05:19:03;17.30;;;12.13;;
13951;SDS011;39535;52.192;9.886;2022-12-07T05:21:31;11.60;;;10.40;;
13951;SDS011;39535;52.192;9.886;2022-12-07T05:23:57;15.40;;;10.97;;
13951;SDS011;39535;52.192;9.886;2022-12-07T05:26:25;14.27;;;10.83;;
13951;SDS011;39535;52.192;9.886;2022-12-07T05:28:52;16.87;;;11.40;;
13951;SDS011;39535;52.192;9.886;2022-12-07T05:31:19;15.20;;;10.53;;
13951;SDS011;39535;52.192;9.886;2022-12-07T05:33:46;12.17;;;10.80;;
13951;SDS011;39535;52.192;9.886;2022-12-07T05:36:13;12.77;;;9.70;;
13951;SDS011;39535;52.192;9.886;2022-12-07T05:38:39;14.80;;;9.90;;
13951;SDS011;39535;52.192;9.886;2022-12-07T05:41:06;12.73;;;10.53;;
13951;SDS011;39535;52.192;9.886;2022-12-07T05:43:55;14.93;;;11.40;;
13951;SDS011;39535;52.192;9.886;2022-12-07T05:46:21;13.70;;;11.60;;
13951;SDS011;39535;52.192;9.886;2022-12-07T05:48:48;16.80;;;12.53;;
13951;SDS011;39535;52.192;9.886;2022-12-07T05:51:14;14.90;;;11.57;;
13951;SDS011;39535;52.192;9.886;2022-12-07T05:53:41;13.67;;;11.97;;
13951;SDS011;39535;52.192;9.886;2022-12-07T05:56:07;16.23;;;12.07;;
13951;SDS011;39535;52.192;9.886;2022-12-07T05:58:34;12.50;;;10.87;;
13951;SDS011;39535;52.192;9.886;2022-12-07T06:01:15;13.60;;;10.27;;
13951;SDS011;39535;52.192;9.886;2022-12-07T06:03:42;12.47;;;9.60;;
13951;SDS011;39535;52.192;9.886;2022-12-07T06:06:08;10.10;;;9.10;;
13951;SDS011;39535;52.192;9.886;2022-12-07T06:08:35;10.97;;;8.33;;
13951;SDS011;39535;52.192;9.886;2022-12-07T06:11:01;10.10;;;9.10;;
13951;SDS011;39535;52.192;9.886;2022-12-07T06:13:46;12.07;;;8.70;;
13951;SDS011;39535;52.192;9.886;2022-12-07T06:16:12;8.90;;;8.07;;
13951;SDS011;39535;52.192;9.886;2022-12-07T06:18:40;8.63;;;7.83;;
13951;SDS011;39535;52.192;9.886;2022-12-07T06:21:06;12.93;;;8.63;;
13951;SDS011;39535;52.192;9.886;2022-12-07T06:23:33;8.60;;;6.97;;
13951;SDS011;39535;52.192;9.886;2022-12-07T06:25:59;8.07;;;6.90;;
13951;SDS011;39535;52.192;9.886;2022-12-07T06:28:25;9.57;;;8.07;;
13951;SDS011;39535;52.192;9.886;2022-12-07T06:30:56;14.10;;;8.40;;
13951;SDS011;39535;52.192;9.886;2022-12-07T06:33:23;9.40;;;7.40;;
13951;SDS011;39535;52.192;9.886;2022-12-07T06:35:51;11.27;;;8.03;;
13951;SDS011;39535;52.192;9.886;2022-12-07T06:38:17;12.23;;;8.10;;
13951;SDS011;39535;52.192;9.886;2022-12-07T06:40:49;11.17;;;8.63;;
13951;SDS011;39535;52.192;9.886;2022-12-07T06:43:16;10.90;;;8.10;;
13951;SDS011;39535;52.192;9.886;2022-12-07T06:45:42;9.07;;;8.00;;
13951;SDS011;39535;52.192;9.886;2022-12-07T06:48:09;9.10;;;8.30;;
13951;SDS011;39535;52.192;9.886;2022-12-07T06:50:35;10.53;;;7.63;;
13951;SDS011;39535;52.192;9.886;2022-12-07T06:53:03;10.57;;;7.70;;
13951;SDS011;39535;52.192;9.886;2022-12-07T06:55:29;9.93;;;7.47;;
13951;SDS011;39535;52.192;9.886;2022-12-07T06:57:56;7.47;;;6.77;;
13951;SDS011;39535;52.192;9.886;2022-12-07T07:00:22;9.23;;;7.83;;
13951;SDS011;39535;52.192;9.886;2022-12-07T07:02:49;8.07;;;7.27;;
13951;SDS011;39535;52.192;9.886;2022-12-07T07:05:15;8.97;;;7.97;;
13951;SDS011;39535;52.192;9.886;2022-12-07T07:07:42;9.30;;;7.77;;
13951;SDS011;39535;52.192;9.886;2022-12-07T07:10:10;8.50;;;7.60;;
13951;SDS011;39535;52.192;9.886;2022-12-07T07:12:36;9.53;;;7.70;;
13951;SDS011;39535;52.192;9.886;2022-12-07T07:15:03;8.60;;;7.33;;
13951;SDS011;39535;52.192;9.886;2022-12-07T07:17:30;7.00;;;6.20;;
13951;SDS011;39535;52.192;9.886;2022-12-07T07:19:57;7.77;;;6.97;;
13951;SDS011;39535;52.192;9.886;2022-12-07T07:22:23;7.33;;;6.60;;
13951;SDS011;39535;52.192;9.886;2022-12-07T07:24:49;9.33;;;6.63;;
13951;SDS011;39535;52.192;9.886;2022-12-07T07:27:17;7.43;;;6.50;;
13951;SDS011;39535;52.192;9.886;2022-12-07T07:29:44;12.23;;;6.83;;
13951;SDS011;39535;52.192;9.886;2022-12-07T07:32:10;6.67;;;6.03;;
13951;SDS011;39535;52.192;9.886;2022-12-07T07:34:37;9.73;;;6.50;;
13951;SDS011;39535;52.192;9.886;2022-12-07T07:37:03;6.37;;;5.77;;
13951;SDS011;39535;52.192;9.886;2022-12-07T07:39:30;6.13;;;5.63;;
13951;SDS011;39535;52.192;9.886;2022-12-07T07:41:56;5.33;;;4.83;;
13951;SDS011;39535;52.192;9.886;2022-12-07T07:44:24;6.30;;;4.97;;
13951;SDS011;39535;52.192;9.886;2022-12-07T07:46:50;5.23;;;4.00;;
13951;SDS011;39535;52.192;9.886;2022-12-07T07:49:17;4.47;;;4.17;;
13951;SDS011;39535;52.192;9.886;2022-12-07T07:51:43;4.00;;;3.70;;
13951;SDS011;39535;52.192;9.886;2022-12-07T07:54:10;4.17;;;3.80;;
13951;SDS011;39535;52.192;9.886;2022-12-07T07:56:36;4.00;;;3.70;;
13951;SDS011;39535;52.192;9.886;2022-12-07T07:59:02;3.83;;;3.53;;
13951;SDS011;39535;52.192;9.886;2022-12-07T08:01:30;4.23;;;3.70;;
13951;SDS011;39535;52.192;9.886;2022-12-07T08:03:57;3.50;;;3.20;;
13951;SDS011;39535;52.192;9.886;2022-12-07T08:06:23;5.57;;;3.43;;
13951;SDS011;39535;52.192;9.886;2022-12-07T08:08:50;6.03;;;3.90;;
13951;SDS011;39535;52.192;9.886;2022-12-07T08:11:16;3.47;;;3.00;;
13951;SDS011;39535;52.192;9.886;2022-12-07T08:13:44;4.03;;;3.67;;
13951;SDS011;39535;52.192;9.886;2022-12-07T08:16:11;4.20;;;3.33;;
13951;SDS011;39535;52.192;9.886;2022-12-07T08:18:40;4.77;;;3.40;;
13951;SDS011;39535;52.192;9.886;2022-12-07T08:21:09;5.67;;;2.87;;
13951;SDS011;39535;52.192;9.886;2022-12-07T08:23:37;4.83;;;3.10;;
13951;SDS011;39535;52.192;9.886;2022-12-07T08:26:05;5.80;;;2.60;;
13951;SDS011;39535;52.192;9.886;2022-12-07T08:28:33;4.70;;;2.60;;
13951;SDS011;39535;52.192;9.886;2022-12-07T08:30:59;5.63;;;2.63;;
13951;SDS011;39535;52.192;9.886;2022-12-07T08:33:26;3.23;;;2.50;;
13951;SDS011;39535;52.192;9.886;2022-12-07T08:35:54;3.60;;;2.50;;
13951;SDS011;39535;52.192;9.886;2022-12-07T08:38:21;2.80;;;2.10;;
13951;SDS011;39535;52.192;9.886;2022-12-07T08:40:53;2.33;;;2.03;;
13951;SDS011;39535;52.192;9.886;2022-12-07T08:43:20;3.83;;;2.40;;
13951;SDS011;39535;52.192;9.886;2022-12-07T08:45:47;3.77;;;2.80;;
13951;SDS011;39535;52.192;9.886;2022-12-07T08:48:15;5.03;;;2.90;;
13951;SDS011;39535;52.192;9.886;2022-12-07T08:50:46;3.97;;;2.97;;
13951;SDS011;39535;52.192;9.886;2022-12-07T08:53:15;5.87;;;3.03;;
13951;SDS011;39535;52.192;9.886;2022-12-07T08:55:42;3.60;;;2.80;;
13951;SDS011;39535;52.192;9.886;2022-12-07T08:58:10;4.97;;;3.17;;
13951;SDS011;39535;52.192;9.886;2022-12-07T09:00:37;5.50;;;2.93;;
13951;SDS011;39535;52.192;9.886;2022-12-07T09:03:03;8.77;;;3.40;;
13951;SDS011;39535;52.192;9.886;2022-12-07T09:05:30;8.17;;;3.33;;
13951;SDS011;39535;52.192;9.886;2022-12-07T09:07:59;6.17;;;2.80;;
13951;SDS011;39535;52.192;9.886;2022-12-07T09:10:28;3.97;;;3.00;;
13951;SDS011;39535;52.192;9.886;2022-12-07T09:12:55;5.40;;;3.00;;
13951;SDS011;39535;52.192;9.886;2022-12-07T09:15:25;6.83;;;4.17;;
13951;SDS011;39535;52.192;9.886;2022-12-07T09:17:52;5.67;;;3.50;;
13951;SDS011;39535;52.192;9.886;2022-12-07T09:20:19;3.47;;;3.10;;
13951;SDS011;39535;52.192;9.886;2022-12-07T09:22:45;4.20;;;3.73;;
13951;SDS011;39535;52.192;9.886;2022-12-07T09:25:14;4.63;;;3.70;;
13951;SDS011;39535;52.192;9.886;2022-12-07T09:27:42;3.67;;;3.33;;
13951;SDS011;39535;52.192;9.886;2022-12-07T09:30:08;4.43;;;3.10;;
13951;SDS011;39535;52.192;9.886;2022-12-07T09:32:35;4.83;;;3.00;;
13951;SDS011;39535;52.192;9.886;2022-12-07T09:35:02;6.50;;;3.20;;
13951;SDS011;39535;52.192;9.886;2022-12-07T09:37:28;6.13;;;2.63;;
13951;SDS011;39535;52.192;9.886;2022-12-07T09:39:56;4.87;;;2.90;;
13951;SDS011;39535;52.192;9.886;2022-12-07T09:42:27;3.87;;;2.27;;
13951;SDS011;39535;52.192;9.886;2022-12-07T09:44:57;2.50;;;2.27;;
13951;SDS011;39535;52.192;9.886;2022-12-07T09:47:25;3.70;;;2.10;;
13951;SDS011;39535;52.192;9.886;2022-12-07T09:49:52;2.20;;;2.00;;
13951;SDS011;39535;52.192;9.886;2022-12-07T09:52:25;2.37;;;1.83;;
13951;SDS011;39535;52.192;9.886;2022-12-07T09:54:53;3.33;;;1.50;;
13951;SDS011;39535;52.192;9.886;2022-12-07T09:57:21;6.13;;;2.00;;
13951;SDS011;39535;52.192;9.886;2022-12-07T09:59:54;6.50;;;1.60;;
13951;SDS011;39535;52.192;9.886;2022-12-07T10:02:32;3.13;;;1.40;;
13951;SDS011;39535;52.192;9.886;2022-12-07T10:05:03;2.53;;;1.40;;
13951;SDS011;39535;52.192;9.886;2022-12-07T10:07:31;3.13;;;1.83;;
13951;SDS011;39535;52.192;9.886;2022-12-07T10:09:57;10.63;;;2.50;;
13951;SDS011;39535;52.192;9.886;2022-12-07T10:12:23;3.30;;;2.30;;
13951;SDS011;39535;52.192;9.886;2022-12-07T10:14:53;4.87;;;2.37;;
13951;SDS011;39535;52.192;9.886;2022-12-07T10:17:28;5.17;;;2.13;;
13951;SDS011;39535;52.192;9.886;2022-12-07T10:20:18;4.43;;;2.10;;
13951;SDS011;39535;52.192;9.886;2022-12-07T10:22:53;3.27;;;1.83;;
13951;SDS011;39535;52.192;9.886;2022-12-07T10:25:22;2.27;;;1.87;;
13951;SDS011;39535;52.192;9.886;2022-12-07T10:27:57;2.37;;;1.87;;
13951;SDS011;39535;52.192;9.886;2022-12-07T10:30:25;1.13;;;0.93;;
13951;SDS011;39535;52.192;9.886;2022-12-07T10:32:53;1.80;;;1.20;;
13951;SDS011;39535;52.192;9.886;2022-12-07T10:35:21;2.50;;;1.33;;
13951;SDS011;39535;52.192;9.886;2022-12-07T10:37:50;2.67;;;1.87;;
13951;SDS011;39535;52.192;9.886;2022-12-07T10:40:28;2.80;;;1.10;;
13951;SDS011;39535;52.192;9.886;2022-12-07T10:43:02;2.80;;;1.60;;
13951;SDS011;39535;52.192;9.886;2022-12-07T10:45:43;1.93;;;1.30;;
13951;SDS011;39535;52.192;9.886;2022-12-07T10:48:44;4.53;;;1.70;;
13951;SDS011;39535;52.192;9.886;2022-12-07T10:51:17;2.63;;;1.50;;
13951;SDS011;39535;52.192;9.886;2022-12-07T10:53:54;2.67;;;1.40;;
13951;SDS011;39535;52.192;9.886;2022-12-07T10:56:34;2.53;;;1.50;;
13951;SDS011;39535;52.192;9.886;2022-12-07T10:59:24;3.77;;;2.10;;
13951;SDS011;39535;52.192;9.886;2022-12-07T11:02:08;2.97;;;2.07;;
13951;SDS011;39535;52.192;9.886;2022-12-07T11:04:54;5.53;;;2.50;;
13951;SDS011;39535;52.192;9.886;2022-12-07T11:07:38;3.80;;;2.70;;
13951;SDS011;39535;52.192;9.886;2022-12-07T11:10:13;3.17;;;2.97;;
13951;SDS011;39535;52.192;9.886;2022-12-07T11:12:51;3.87;;;3.00;;
13951;SDS011;39535;52.192;9.886;2022-12-07T11:15:29;7.73;;;2.93;;
13951;SDS011;39535;52.192;9.886;2022-12-07T11:18:03;5.60;;;2.90;;
13951;SDS011;39535;52.192;9.886;2022-12-07T11:20:39;3.50;;;3.20;;
13951;SDS011;39535;52.192;9.886;2022-12-07T11:23:13;3.00;;;2.70;;
13951;SDS011;39535;52.192;9.886;2022-12-07T11:25:49;5.77;;;3.27;;
13951;SDS011;39535;52.192;9.886;2022-12-07T11:28:24;8.60;;;3.10;;
13951;SDS011;39535;52.192;9.886;2022-12-07T11:31:05;6.93;;;2.63;;
13951;SDS011;39535;52.192;9.886;2022-12-07T11:33:40;2.67;;;2.23;;
13951;SDS011;39535;52.192;9.886;2022-12-07T11:36:14;4.00;;;2.20;;
13951;SDS011;39535;52.192;9.886;2022-12-07T11:38:56;4.50;;;2.30;;
13951;SDS011;39535;52.192;9.886;2022-12-07T11:41:28;3.67;;;2.70;;
13951;SDS011;39535;52.192;9.886;2022-12-07T11:43:58;7.43;;;3.27;;
13951;SDS011;39535;52.192;9.886;2022-12-07T11:46:29;5.27;;;3.87;;
13951;SDS011;39535;52.192;9.886;2022-12-07T11:49:07;4.63;;;3.00;;
13951;SDS011;39535;52.192;9.886;2022-12-07T11:51:39;3.40;;;3.10;;
13951;SDS011;39535;52.192;9.886;2022-12-07T11:54:11;5.77;;;3.83;;
13951;SDS011;39535;52.192;9.886;2022-12-07T11:56:41;5.93;;;3.80;;
13951;SDS011;39535;52.192;9.886;2022-12-07T11:59:11;5.13;;;3.40;;
13951;SDS011;39535;52.192;9.886;2022-12-07T12:01:44;5.63;;;3.07;;
13951;SDS011;39535;52.192;9.886;2022-12-07T12:04:28;5.63;;;2.80;;
13951;SDS011;39535;52.192;9.886;2022-12-07T12:07:01;4.23;;;3.73;;
13951;SDS011;39535;52.192;9.886;2022-12-07T12:09:32;4.47;;;3.27;;
13951;SDS011;39535;52.192;9.886;2022-12-07T12:12:07;4.33;;;3.20;;
13951;SDS011;39535;52.192;9.886;2022-12-07T12:14:48;6.60;;;4.17;;
13951;SDS011;39535;52.192;9.886;2022-12-07T12:17:39;3.63;;;2.70;;
13951;SDS011;39535;52.192;9.886;2022-12-07T12:20:19;6.27;;;2.40;;
13951;SDS011;39535;52.192;9.886;2022-12-07T12:22:52;3.43;;;2.30;;
13951;SDS011;39535;52.192;9.886;2022-12-07T12:25:23;3.77;;;1.10;;
13951;SDS011;39535;52.192;9.886;2022-12-07T12:27:53;2.40;;;1.23;;
13951;SDS011;39535;52.192;9.886;2022-12-07T12:30:24;4.40;;;1.40;;
13951;SDS011;39535;52.192;9.886;2022-12-07T12:33:00;4.33;;;1.13;;
13951;SDS011;39535;52.192;9.886;2022-12-07T12:35:30;3.83;;;1.07;;
13951;SDS011;39535;52.192;9.886;2022-12-07T12:41:22;3.67;;;1.13;;
13951;SDS011;39535;52.192;9.886;2022-12-07T12:47:40;4.57;;;2.00;;
13951;SDS011;39535;52.192;9.886;2022-12-07T12:50:21;3.27;;;1.80;;
13951;SDS011;39535;52.192;9.886;2022-12-07T12:52:54;5.40;;;2.10;;
13951;SDS011;39535;52.192;9.886;2022-12-07T12:58:33;5.30;;;2.40;;
13951;SDS011;39535;52.192;9.886;2022-12-07T13:07:00;8.60;;;2.33;;
13951;SDS011;39535;52.192;9.886;2022-12-07T13:09:27;3.77;;;2.07;;
13951;SDS011;39535;52.192;9.886;2022-12-07T13:11:59;5.00;;;2.77;;
13951;SDS011;39535;52.192;9.886;2022-12-07T13:23:12;5.00;;;1.47;;
13951;SDS011;39535;52.192;9.886;2022-12-07T13:25:44;4.30;;;2.23;;
13951;SDS011;39535;52.192;9.886;2022-12-07T13:28:18;4.20;;;1.40;;
13951;SDS011;39535;52.192;9.886;2022-12-07T13:30:54;3.07;;;1.50;;
13951;SDS011;39535;52.192;9.886;2022-12-07T13:33:29;5.93;;;1.60;;
13951;SDS011;39535;52.192;9.886;2022-12-07T13:35:56;3.33;;;1.67;;
13951;SDS011;39535;52.192;9.886;2022-12-07T13:38:27;3.33;;;1.93;;
13951;SDS011;39535;52.192;9.886;2022-12-07T13:41:03;5.77;;;2.00;;
13951;SDS011;39535;52.192;9.886;2022-12-07T13:43:43;5.97;;;1.73;;
13951;SDS011;39535;52.192;9.886;2022-12-07T13:46:11;2.67;;;1.50;;
13951;SDS011;39535;52.192;9.886;2022-12-07T13:48:43;3.03;;;1.70;;
13951;SDS011;39535;52.192;9.886;2022-12-07T13:51:16;6.87;;;1.97;;
13951;SDS011;39535;52.192;9.886;2022-12-07T13:53:45;3.93;;;1.70;;
13951;SDS011;39535;52.192;9.886;2022-12-07T13:56:12;5.83;;;2.00;;
13951;SDS011;39535;52.192;9.886;2022-12-07T13:58:40;8.33;;;2.77;;
13951;SDS011;39535;52.192;9.886;2022-12-07T14:01:08;2.20;;;1.97;;
13951;SDS011;39535;52.192;9.886;2022-12-07T14:03:35;4.53;;;1.97;;
13951;SDS011;39535;52.192;9.886;2022-12-07T14:06:04;4.17;;;1.33;;
13951;SDS011;39535;52.192;9.886;2022-12-07T14:08:45;3.63;;;1.30;;
13951;SDS011;39535;52.192;9.886;2022-12-07T14:11:13;5.17;;;2.17;;
13951;SDS011;39535;52.192;9.886;2022-12-07T14:13:50;5.50;;;1.90;;
13951;SDS011;39535;52.192;9.886;2022-12-07T14:16:24;3.93;;;2.07;;
13951;SDS011;39535;52.192;9.886;2022-12-07T14:18:54;6.30;;;2.20;;
13951;SDS011;39535;52.192;9.886;2022-12-07T14:21:21;2.97;;;2.33;;
13951;SDS011;39535;52.192;9.886;2022-12-07T14:24:09;3.43;;;2.50;;
13951;SDS011;39535;52.192;9.886;2022-12-07T14:26:40;4.93;;;2.80;;
13951;SDS011;39535;52.192;9.886;2022-12-07T14:29:19;3.60;;;2.37;;
13951;SDS011;39535;52.192;9.886;2022-12-07T14:31:57;7.80;;;3.57;;
13951;SDS011;39535;52.192;9.886;2022-12-07T14:34:37;7.80;;;7.00;;
13951;SDS011;39535;52.192;9.886;2022-12-07T14:37:03;7.83;;;4.60;;
13951;SDS011;39535;52.192;9.886;2022-12-07T14:39:33;4.83;;;2.60;;
13951;SDS011;39535;52.192;9.886;2022-12-07T14:41:59;12.77;;;9.80;;
13951;SDS011;39535;52.192;9.886;2022-12-07T14:44:25;5.40;;;3.70;;
13951;SDS011;39535;52.192;9.886;2022-12-07T14:46:53;6.67;;;3.93;;
13951;SDS011;39535;52.192;9.886;2022-12-07T14:49:21;6.53;;;3.00;;
13951;SDS011;39535;52.192;9.886;2022-12-07T14:51:48;6.07;;;2.70;;
13951;SDS011;39535;52.192;9.886;2022-12-07T14:54:15;4.77;;;2.30;;
13951;SDS011;39535;52.192;9.886;2022-12-07T14:56:44;4.77;;;2.77;;
13951;SDS011;39535;52.192;9.886;2022-12-07T14:59:10;9.00;;;3.83;;
13951;SDS011;39535;52.192;9.886;2022-12-07T15:01:37;8.27;;;3.83;;
13951;SDS011;39535;52.192;9.886;2022-12-07T15:04:04;7.30;;;4.87;;
13951;SDS011;39535;52.192;9.886;2022-12-07T15:06:32;3.90;;;2.47;;
13951;SDS011;39535;52.192;9.886;2022-12-07T15:08:59;5.43;;;3.50;;
13951;SDS011;39535;52.192;9.886;2022-12-07T15:11:25;6.40;;;2.63;;
13951;SDS011;39535;52.192;9.886;2022-12-07T15:13:52;4.47;;;2.53;;
13951;SDS011;39535;52.192;9.886;2022-12-07T15:16:36;5.37;;;1.80;;
13951;SDS011;39535;52.192;9.886;2022-12-07T15:19:04;7.17;;;3.27;;
13951;SDS011;39535;52.192;9.886;2022-12-07T15:21:32;4.03;;;3.73;;
13951;SDS011;39535;52.192;9.886;2022-12-07T15:23:58;6.93;;;3.30;;
13951;SDS011;39535;52.192;9.886;2022-12-07T15:26:25;5.27;;;3.23;;